KVPS/VPS METAR and TAF weather

Enter ICAO airport designator
Station Type Date Time Source
KVPS METAR 2022/08/13 12:56 UTC NOAA

KVPS 131256Z AUTO 36005KT 10SM CLR 26/23 A3003 RMK AO2 SLP175 T02580231 $


Station Type Date Time Source
KVPS Decoded METAR 2022/08/13 12:56 UTC NOAA

Valparaiso / Eglin Air Force Base, FL, United States (KVPS) 30-29N 086-31W 29M
Aug 13, 2022 - 08:56 AM EDT / 2022.08.13 1256 UTC
Wind: from the N (360 degrees) at 6 MPH (5 KT):0
Visibility: 10 mile(s):0
Sky conditions: clear
Temperature: 78.4 F (25.8 C)
Dew Point: 73.6 F (23.1 C)
Relative Humidity: 85%
Pressure (altimeter): 30.03 in. Hg (1016 hPa)
ob: KVPS 131256Z AUTO 36005KT 10SM CLR 26/23 A3003 RMK AO2 SLP175 T02580231
cycle: 13

Station Type Date Time Source
KVPS TAF 2022/08/13 09:57 UTC NOAA

TAF KVPS 130900Z 1309/1415 30006KT 9000 BR FEW030 FEW045 SCT065 QNH2997INS
BECMG 1311/1312 27006KT 9999 VCSH FEW018 SCT026 BKN040 QNH3001INS
TEMPO 1317/1321 20015G25KT 8000 -TSRA SCT026CB
BECMG 1322/1323 23009KT 9999 VCSH SCT030 BKN045 OVC065 QNH2997INS
TEMPO 1323/1406 25012KT 9000 -SHRA SCT030
BECMG 1408/1409 27009KT 9999 NSW FEW010 SCT018 OVC025 QNH2994INS TX30/1321Z TN23/1311Z

Example: see airport list